Airport ID:K63S
Update Time (UTC):29/07/2021 22:43
Wind Speed (Knots):0
Wind Direction (Magnetic):250
Temperature (°C):35
Dew Point (°C):4
Humidity (%):14
Altimeter (inHg):29.99
Density Altitude (Feet):4600
Visibility:10+
Clouds (Hundreds of feet):CLR
Present Weather:
METAR:METAR K63S 292240Z AUTO 00000KT 10SM CLR 35/04 A2999 RMK A01

The data displayed is for advisory purposes only and is not to be used for flight planning or operations.